Time;durP1;ratioP1;P1;durP2;ratioP2;P2;SDS_P1;SDS_P2;PMS_P1;PMS_P2;Temp;Humidity;BMP_temperature;BMP_pressure;BME280_temperature;BME280_humidity;BME280_pressure;Samples;Min_cycle;Max_cycle;Signal;HPM_P1;HPM_P2
2021/10/05 00:00:36;;;;;;;3.50;1.45;;;14.10;73.40;;;;;;5041404;28;20432;-93
2021/10/05 00:03:02;;;;;;;3.45;1.52;;;14.10;74.20;;;;;;5041470;28;20190;-94
2021/10/05 00:05:27;;;;;;;7.20;1.90;;;14.10;73.60;;;;;;5041494;28;20177;-93
2021/10/05 00:07:53;;;;;;;4.80;1.90;;;14.10;73.40;;;;;;5041262;28;20456;-94
2021/10/05 00:10:19;;;;;;;3.50;1.40;;;14.00;73.50;;;;;;5040010;28;20215;-96
2021/10/05 00:12:45;;;;;;;4.90;1.87;;;14.10;73.80;;;;;;5041164;28;20265;-93
2021/10/05 00:15:13;;;;;;;5.93;1.60;;;14.10;73.90;;;;;;5041205;28;20238;-93
2021/10/05 00:17:39;;;;;;;4.93;1.70;;;14.00;73.30;;;;;;5040949;28;20523;-95
2021/10/05 00:20:08;;;;;;;2.50;1.43;;;13.90;73.40;;;;;;5040782;28;20174;-95
2021/10/05 00:22:34;;;;;;;2.72;1.52;;;14.00;73.60;;;;;;5039201;28;20464;-95
2021/10/05 00:25:00;;;;;;;9.63;2.10;;;13.90;73.60;;;;;;5038900;28;20178;-94
2021/10/05 00:27:26;;;;;;;3.03;1.90;;;13.80;73.80;;;;;;5022003;28;20189;-95
2021/10/05 00:29:52;;;;;;;3.30;1.60;;;13.70;74.10;;;;;;5039536;28;20474;-95
2021/10/05 00:32:17;;;;;;;3.97;1.63;;;13.70;74.30;;;;;;5022538;28;20193;-95
2021/10/05 00:34:43;;;;;;;3.93;1.93;;;13.70;74.20;;;;;;5038526;28;20177;-95
2021/10/05 00:37:09;;;;;;;3.90;1.67;;;13.70;74.10;;;;;;5019851;28;20186;-95
2021/10/05 00:39:34;;;;;;;3.60;1.60;;;13.70;74.20;;;;;;5019267;28;20174;-95
2021/10/05 00:42:01;;;;;;;3.20;1.50;;;13.70;74.30;;;;;;5019379;28;20444;-95
2021/10/05 00:44:33;;;;;;;5.43;2.50;;;13.80;74.20;;;;;;5019492;28;20583;-95
2021/10/05 00:47:03;;;;;;;3.60;1.33;;;13.80;73.70;;;;;;5037887;28;20237;-94
2021/10/05 00:49:30;;;;;;;1.60;1.25;;;13.80;73.80;;;;;;5021098;28;20185;-92
2021/10/05 00:51:56;;;;;;;3.15;1.65;;;13.80;73.80;;;;;;5020933;28;20305;-93
2021/10/05 00:54:23;;;;;;;3.05;1.63;;;13.80;73.80;;;;;;5020918;28;20198;-94
2021/10/05 00:56:49;;;;;;;3.53;1.30;;;14.00;73.60;;;;;;5037382;28;20274;-92
2021/10/05 00:59:15;;;;;;;3.37;1.87;;;13.90;73.60;;;;;;5020846;28;20162;-94
2021/10/05 01:01:40;;;;;;;1.90;1.67;;;13.90;73.50;;;;;;5020584;28;20524;-95
2021/10/05 01:04:06;;;;;;;3.23;1.23;;;13.90;73.70;;;;;;5020737;28;20274;-93
2021/10/05 01:06:33;;;;;;;1.30;1.20;;;13.90;73.60;;;;;;5020236;28;20433;-94
2021/10/05 01:08:59;;;;;;;3.72;1.40;;;13.90;73.60;;;;;;5017473;28;20541;-94
2021/10/05 01:11:25;;;;;;;4.20;1.38;;;13.80;73.50;;;;;;5023687;28;20646;-94
2021/10/05 01:13:51;;;;;;;3.83;1.60;;;13.90;73.60;;;;;;5034238;28;20216;-94
2021/10/05 01:16:18;;;;;;;3.10;1.50;;;13.90;73.40;;;;;;5032113;28;20276;-94
2021/10/05 01:18:46;;;;;;;2.38;1.50;;;13.90;73.40;;;;;;5054727;28;20174;-94
2021/10/05 01:21:12;;;;;;;1.55;1.35;;;14.00;73.50;;;;;;5040358;28;20182;-94
2021/10/05 01:23:38;;;;;;;5.82;1.67;;;14.10;73.70;;;;;;5040331;28;20229;-95
2021/10/05 01:26:04;;;;;;;3.58;1.60;;;13.90;73.40;;;;;;5040386;28;20178;-94
2021/10/05 01:28:31;;;;;;;4.70;1.67;;;13.90;73.50;;;;;;5040286;28;20178;-93
2021/10/05 01:30:58;;;;;;;2.58;1.63;;;13.80;73.40;;;;;;5040030;28;20291;-94
2021/10/05 01:33:29;;;;;;;2.88;1.20;;;13.90;73.60;;;;;;5057421;28;20205;-94
2021/10/05 01:35:55;;;;;;;1.85;1.20;;;13.70;73.20;;;;;;5056873;28;20180;-93
2021/10/05 01:38:21;;;;;;;1.63;1.38;;;13.90;73.30;;;;;;5040341;28;20193;-94
2021/10/05 01:40:48;;;;;;;1.50;1.40;;;13.90;73.40;;;;;;5040167;28;20182;-94
2021/10/05 01:43:13;;;;;;;2.78;1.20;;;13.70;73.40;;;;;;5043610;28;20288;-94
2021/10/05 01:45:40;;;;;;;4.57;1.50;;;13.70;73.70;;;;;;5043873;28;20178;-94
2021/10/05 01:48:07;;;;;;;3.92;1.65;;;13.70;73.90;;;;;;5043764;28;20416;-92
2021/10/05 01:50:35;;;;;;;5.88;1.20;;;13.70;73.90;;;;;;5043983;28;20239;-94
2021/10/05 01:53:01;;;;;;;1.60;1.50;;;13.80;73.70;;;;;;5061042;28;20252;-92
2021/10/05 01:55:27;;;;;;;2.33;1.50;;;13.80;73.60;;;;;;5043883;28;20176;-93
2021/10/05 01:57:53;;;;;;;6.57;1.50;;;13.80;73.90;;;;;;5043652;28;20201;-93
2021/10/05 02:00:19;;;;;;;2.40;1.30;;;13.70;74.20;;;;;;5043581;28;20178;-93
2021/10/05 02:02:45;;;;;;;5.43;1.27;;;13.80;74.20;;;;;;5043248;28;20464;-93
2021/10/05 02:05:11;;;;;;;9.67;1.50;;;13.70;74.00;;;;;;5043823;28;20205;-94
2021/10/05 02:07:37;;;;;;;1.97;1.40;;;13.60;74.20;;;;;;5060971;28;20458;-93
2021/10/05 02:10:06;;;;;;;2.45;1.50;;;13.60;74.30;;;;;;5043452;28;20208;-94
2021/10/05 02:12:32;;;;;;;4.07;1.70;;;13.70;74.70;;;;;;5060495;28;20198;-92
2021/10/05 02:14:58;;;;;;;3.40;1.40;;;13.70;74.70;;;;;;5042326;28;20186;-93
2021/10/05 02:17:24;;;;;;;2.20;1.30;;;13.80;74.30;;;;;;5040490;28;20201;-94
2021/10/05 02:19:49;;;;;;;2.40;1.57;;;13.90;74.20;;;;;;5040425;28;20186;-94
2021/10/05 02:22:15;;;;;;;4.10;1.43;;;13.80;74.00;;;;;;5042373;28;20170;-95
2021/10/05 02:24:45;;;;;;;5.50;1.97;;;13.80;74.30;;;;;;5040668;28;20169;-94
2021/10/05 02:27:12;;;;;;;4.65;1.35;;;13.70;74.40;;;;;;5040123;28;20182;-94
2021/10/05 02:29:39;;;;;;;5.18;1.48;;;13.70;74.40;;;;;;5037344;28;20174;-94
2021/10/05 02:32:07;;;;;;;4.20;1.50;;;13.70;74.50;;;;;;5037085;28;20202;-94
2021/10/05 02:34:33;;;;;;;3.15;1.20;;;13.70;74.60;;;;;;5037901;28;20563;-94
2021/10/05 02:36:59;;;;;;;2.63;1.40;;;13.80;74.50;;;;;;5024376;28;20258;-95
2021/10/05 02:39:25;;;;;;;5.87;1.63;;;13.80;74.60;;;;;;5016035;28;20191;-94
2021/10/05 02:41:51;;;;;;;1.85;1.60;;;13.80;74.80;;;;;;5031831;28;20499;-94
2021/10/05 02:44:17;;;;;;;2.35;1.40;;;13.70;74.70;;;;;;5039987;28;20201;-94
2021/10/05 02:46:43;;;;;;;1.73;1.30;;;13.70;75.00;;;;;;5040080;28;20182;-95
2021/10/05 02:49:09;;;;;;;5.72;1.60;;;13.70;75.10;;;;;;5059912;28;20444;-93
2021/10/05 02:51:35;;;;;;;2.97;1.60;;;13.50;75.00;;;;;;5043002;28;20197;-95
2021/10/05 02:54:01;;;;;;;2.03;1.30;;;13.40;75.50;;;;;;5041123;28;20202;-94
2021/10/05 02:56:27;;;;;;;3.00;1.57;;;13.40;75.70;;;;;;5042295;28;20226;-94
2021/10/05 02:58:53;;;;;;;2.45;1.38;;;13.40;76.10;;;;;;5042290;28;20404;-92
2021/10/05 03:01:19;;;;;;;3.35;1.40;;;13.30;76.20;;;;;;5042415;28;20181;-94
2021/10/05 03:03:45;;;;;;;4.30;1.40;;;13.30;76.70;;;;;;5042296;28;20202;-94
2021/10/05 03:06:11;;;;;;;1.20;1.10;;;13.20;76.80;;;;;;5059951;28;20413;-94
2021/10/05 03:08:40;;;;;;;4.93;1.70;;;13.20;76.80;;;;;;5042562;28;20413;-92
2021/10/05 03:11:06;;;;;;;1.92;1.38;;;13.30;76.80;;;;;;5059825;28;20468;-94
2021/10/05 03:13:35;;;;;;;4.57;1.50;;;13.20;76.70;;;;;;5041884;28;20202;-95
2021/10/05 03:16:03;;;;;;;4.57;1.85;;;13.20;76.80;;;;;;5042445;28;20198;-94
2021/10/05 03:18:29;;;;;;;6.35;1.42;;;13.30;76.70;;;;;;5042051;28;20182;-94
2021/10/05 03:20:56;;;;;;;7.78;4.47;;;13.30;76.70;;;;;;5041841;28;20193;-95
2021/10/05 03:23:22;;;;;;;1.65;1.55;;;13.20;76.80;;;;;;5041307;28;20280;-94
2021/10/05 03:25:47;;;;;;;2.10;1.37;;;13.20;77.40;;;;;;5042377;28;20194;-93
2021/10/05 03:28:13;;;;;;;4.63;1.43;;;13.30;77.50;;;;;;5042284;28;20200;-94
2021/10/05 03:30:39;;;;;;;2.13;1.57;;;13.20;77.30;;;;;;5041736;28;20517;-94
2021/10/05 03:33:05;;;;;;;1.70;1.40;;;13.20;77.40;;;;;;5041814;28;20440;-94
2021/10/05 03:35:32;;;;;;;1.80;1.70;;;13.40;77.40;;;;;;5041735;28;20165;-95
2021/10/05 03:37:58;;;;;;;2.78;1.40;;;13.30;76.80;;;;;;5040992;28;20437;-95
2021/10/05 03:40:24;;;;;;;2.73;1.80;;;13.20;77.20;;;;;;5041212;28;20174;-93
2021/10/05 03:42:50;;;;;;;4.43;1.38;;;13.40;77.30;;;;;;5040858;28;20436;-95
2021/10/05 03:45:16;;;;;;;1.73;1.20;;;13.30;77.30;;;;;;5040761;28;20192;-94
2021/10/05 03:47:42;;;;;;;3.90;1.90;;;13.40;77.60;;;;;;5036496;28;20413;-94
2021/10/05 03:50:10;;;;;;;5.80;1.70;;;13.20;77.40;;;;;;5036406;28;20460;-94
2021/10/05 03:52:37;;;;;;;3.25;1.83;;;13.30;77.50;;;;;;5038512;28;20208;-95
2021/10/05 03:55:05;;;;;;;4.05;1.80;;;13.20;77.60;;;;;;5038342;28;20220;-94
2021/10/05 03:57:31;;;;;;;5.25;1.30;;;13.20;77.50;;;;;;5038216;28;20201;-95
2021/10/05 03:59:56;;;;;;;5.27;2.20;;;13.00;77.80;;;;;;5038108;28;20189;-94
2021/10/05 04:02:22;;;;;;;2.63;2.03;;;13.00;78.20;;;;;;5040365;28;20180;-94
2021/10/05 04:04:48;;;;;;;5.23;1.80;;;13.00;78.20;;;;;;5041500;28;20258;-94
2021/10/05 04:07:14;;;;;;;3.43;1.50;;;13.00;78.50;;;;;;5024964;28;20420;-94
2021/10/05 04:09:40;;;;;;;5.33;1.40;;;13.00;78.70;;;;;;5041355;28;20535;-94
2021/10/05 04:12:07;;;;;;;2.65;1.40;;;13.00;78.80;;;;;;5041026;28;20516;-95
2021/10/05 04:14:33;;;;;;;8.13;1.65;;;13.10;79.20;;;;;;5025214;28;20189;-95
2021/10/05 04:16:59;;;;;;;3.93;1.40;;;13.00;78.90;;;;;;5039695;28;20178;-94
2021/10/05 04:19:25;;;;;;;5.83;1.80;;;13.00;78.50;;;;;;5038685;28;20432;-95
2021/10/05 04:21:51;;;;;;;5.77;2.70;;;13.10;78.90;;;;;;5040898;28;20424;-94
2021/10/05 04:24:17;;;;;;;3.43;1.50;;;13.10;79.20;;;;;;5058369;28;20190;-93
2021/10/05 04:26:43;;;;;;;1.97;1.70;;;13.00;79.00;;;;;;5041075;28;20472;-95
2021/10/05 04:29:09;;;;;;;2.77;2.57;;;13.00;79.00;;;;;;5041045;28;20439;-94
2021/10/05 04:31:37;;;;;;;3.97;1.80;;;13.10;79.20;;;;;;5037712;28;20542;-95
2021/10/05 04:34:03;;;;;;;5.47;2.60;;;13.20;79.20;;;;;;5055890;28;20178;-95
2021/10/05 04:36:29;;;;;;;4.70;1.95;;;13.10;78.70;;;;;;5039660;28;20165;-93
2021/10/05 04:38:55;;;;;;;3.97;1.60;;;13.10;78.70;;;;;;5039868;28;20262;-94
2021/10/05 04:41:21;;;;;;;6.73;2.10;;;13.20;79.10;;;;;;5040150;28;20190;-93
2021/10/05 04:43:47;;;;;;;2.97;1.70;;;13.10;78.50;;;;;;5040243;28;20456;-95
2021/10/05 04:46:13;;;;;;;2.40;1.93;;;13.10;78.60;;;;;;5037643;28;20428;-95
2021/10/05 04:48:39;;;;;;;2.07;1.30;;;13.20;78.50;;;;;;5036994;28;20424;-95
2021/10/05 04:51:04;;;;;;;2.43;1.53;;;13.10;78.50;;;;;;5036063;28;20213;-94
2021/10/05 04:53:30;;;;;;;5.05;2.08;;;13.20;78.60;;;;;;5037878;28;20229;-94
2021/10/05 04:55:56;;;;;;;3.30;1.70;;;13.20;78.20;;;;;;5031687;28;20186;-94
2021/10/05 04:58:22;;;;;;;1.87;1.47;;;13.30;78.10;;;;;;5033515;28;20178;-94
2021/10/05 05:00:50;;;;;;;4.10;1.80;;;13.20;78.00;;;;;;5039648;28;20165;-92
2021/10/05 05:03:21;;;;;;;8.23;1.65;;;13.30;78.10;;;;;;5040487;28;20471;-95
2021/10/05 05:05:55;;;;;;;3.05;1.80;;;13.20;77.90;;;;;;5057638;28;20177;-95
2021/10/05 05:08:21;;;;;;;2.03;1.50;;;13.30;77.90;;;;;;5040444;28;20162;-95
2021/10/05 05:10:50;;;;;;;2.42;1.85;;;13.30;78.00;;;;;;5040039;28;20213;-94
2021/10/05 05:13:36;;;;;;;6.30;2.00;;;13.20;77.90;;;;;;5057459;28;20190;-95
2021/10/05 05:16:06;;;;;;;5.25;1.65;;;13.20;78.00;;;;;;5039592;28;20195;-95
2021/10/05 05:19:26;;;;;;;4.03;1.58;;;13.20;78.00;;;;;;5040314;28;20166;-96
2021/10/05 05:27:21;;;;;;;3.13;1.83;;;13.20;78.10;;;;;;5184554;22;20230;-95
2021/10/05 05:29:47;;;;;;;6.75;2.05;;;13.30;78.50;;;;;;5040228;28;20166;-93
2021/10/05 05:32:15;;;;;;;5.87;2.27;;;13.20;78.40;;;;;;5040633;28;20154;-95
2021/10/05 05:34:41;;;;;;;4.93;2.05;;;13.20;78.60;;;;;;5040859;28;20174;-94
2021/10/05 05:53:30;;;;;;;2.65;1.63;;;13.00;79.50;;;;;;5048240;28;20214;-93
2021/10/05 06:39:57;;;;;;;2.60;1.80;;;13.20;80.20;;;;;;5039221;28;20195;-96
2021/10/05 06:42:35;;;;;;;3.63;1.88;;;13.30;80.40;;;;;;5022983;28;20190;-96
2021/10/05 06:45:07;;;;;;;3.13;2.05;;;13.40;80.50;;;;;;5023231;28;20249;-96
2021/10/05 06:47:39;;;;;;;5.20;1.90;;;13.40;80.20;;;;;;5023124;28;20190;-96
2021/10/05 06:50:08;;;;;;;7.88;2.08;;;13.40;80.20;;;;;;5022645;28;20230;-96
2021/10/05 06:52:34;;;;;;;10.63;2.17;;;13.30;80.40;;;;;;5022693;28;20214;-95
2021/10/05 06:55:00;;;;;;;7.97;1.87;;;13.50;80.50;;;;;;5040160;28;20190;-95
2021/10/05 06:57:26;;;;;;;3.03;1.98;;;13.60;80.30;;;;;;5040034;28;20417;-94
2021/10/05 06:59:52;;;;;;;3.40;2.10;;;13.60;80.00;;;;;;5020449;28;20183;-94
2021/10/05 07:02:18;;;;;;;2.22;1.88;;;13.50;80.40;;;;;;5021009;28;20205;-94
2021/10/05 07:04:44;;;;;;;5.03;2.17;;;13.60;80.20;;;;;;5021129;28;20175;-95
2021/10/05 07:07:10;;;;;;;4.78;2.08;;;13.60;80.00;;;;;;5022071;28;20241;-94
2021/10/05 07:09:37;;;;;;;2.08;1.95;;;13.50;80.20;;;;;;5022658;28;20171;-96
2021/10/05 07:12:03;;;;;;;4.68;2.03;;;13.60;80.20;;;;;;5022606;28;20186;-96
2021/10/05 07:14:30;;;;;;;3.72;1.60;;;13.70;80.20;;;;;;5022403;28;20211;-96
2021/10/05 07:17:04;;;;;;;3.15;2.03;;;13.70;81.00;;;;;;5022371;28;20166;-96
2021/10/05 07:19:30;;;;;;;3.50;2.00;;;13.80;80.10;;;;;;5021400;28;20190;-94
2021/10/05 07:21:55;;;;;;;4.40;1.70;;;13.80;80.00;;;;;;5021840;28;20177;-94
2021/10/05 07:24:21;;;;;;;7.47;3.20;;;13.80;80.10;;;;;;5021951;28;20183;-94
2021/10/05 07:26:47;;;;;;;4.30;2.10;;;13.80;79.80;;;;;;5020456;28;20437;-94
2021/10/05 07:29:14;;;;;;;2.70;2.20;;;13.90;80.00;;;;;;5021010;28;20429;-94
2021/10/05 07:31:45;;;;;;;4.05;1.67;;;14.00;79.50;;;;;;5021042;28;20512;-94
2021/10/05 07:34:11;;;;;;;4.25;1.90;;;14.00;79.40;;;;;;5021771;28;20218;-94
2021/10/05 07:36:37;;;;;;;4.15;1.50;;;13.90;79.50;;;;;;5022061;28;20171;-94
2021/10/05 07:39:04;;;;;;;3.97;1.53;;;13.90;79.70;;;;;;5021281;28;20253;-94
2021/10/05 07:41:30;;;;;;;4.88;1.80;;;14.00;79.70;;;;;;5021444;28;20445;-94
2021/10/05 07:44:32;;;;;;;;;;;;;;;;;;;;;
2021/10/05 07:47:16;;;;;;;5.97;3.08;;;14.10;79.10;;;;;;5023230;28;20417;-95
2021/10/05 08:10:24;;;;;;;4.53;1.80;;;15.40;76.20;;;;;;5407562;23;20235;-93
2021/10/05 08:13:12;;;;;;;5.18;1.65;;;15.50;75.60;;;;;;4974789;28;20223;-94
2021/10/05 08:15:53;;;;;;;3.90;1.55;;;15.60;74.80;;;;;;4959256;28;20232;-93
2021/10/05 08:18:42;;;;;;;6.25;1.75;;;15.70;74.70;;;;;;4958532;28;20179;-94
2021/10/05 08:21:25;;;;;;;4.90;1.83;;;15.50;74.10;;;;;;4958572;28;20230;-93
2021/10/05 08:24:49;;;;;;;;;;;;;;;;;;;;;
2021/10/05 08:32:45;;;;;;;3.53;1.75;;;15.60;74.40;;;;;;4997513;28;20198;-96
2021/10/05 08:40:43;;;;;;;6.50;1.63;;;15.50;74.20;;;;;;4976846;26;20222;-95
2021/10/05 08:50:57;;;;;;;3.20;1.73;;;15.80;73.70;;;;;;4744518;29;20269;-96
2021/10/05 08:54:21;;;;;;;;;;;;;;;;;;;;;
2021/10/05 09:01:56;;;;;;;;;;;;;;;;;;;;;
2021/10/05 09:08:31;;;;;;;;;;;;;;;;;;;;;
2021/10/05 09:31:31;;;;;;;3.65;1.42;;;17.00;70.10;;;;;;4737146;29;20237;-95
2021/10/05 09:33:57;;;;;;;1.67;1.43;;;17.20;69.40;;;;;;4773689;29;20209;-94
2021/10/05 09:36:26;;;;;;;2.77;1.47;;;17.20;68.10;;;;;;4894130;29;20186;-94
2021/10/05 09:39:00;;;;;;;1.98;1.15;;;17.30;68.20;;;;;;4892451;29;20455;-95
2021/10/05 09:41:27;;;;;;;2.53;1.60;;;17.30;67.40;;;;;;4893608;29;20182;-94
2021/10/05 09:44:04;;;;;;;3.20;1.55;;;17.40;67.40;;;;;;4925503;29;20206;-95
2021/10/05 09:46:35;;;;;;;4.40;2.05;;;17.50;67.40;;;;;;4953099;29;20181;-93
2021/10/05 09:49:08;;;;;;;4.80;1.60;;;17.90;66.50;;;;;;4934924;29;20181;-95
2021/10/05 09:51:33;;;;;;;3.22;1.60;;;17.60;65.80;;;;;;4936080;29;20493;-94
2021/10/05 09:54:00;;;;;;;5.33;1.80;;;17.50;66.80;;;;;;4932582;29;20205;-95
2021/10/05 09:56:30;;;;;;;4.00;1.55;;;17.40;66.70;;;;;;4931386;29;20440;-95
2021/10/05 09:58:57;;;;;;;9.10;1.70;;;17.50;68.50;;;;;;4932844;29;20212;-94
2021/10/05 10:01:24;;;;;;;1.75;1.38;;;17.20;68.50;;;;;;4936396;29;20181;-95
2021/10/05 10:03:52;;;;;;;10.02;2.28;;;17.20;69.00;;;;;;4934896;29;20220;-94
2021/10/05 10:06:18;;;;;;;4.47;1.70;;;17.20;69.90;;;;;;4950765;29;20181;-94
2021/10/05 10:08:53;;;;;;;2.38;1.52;;;16.80;71.00;;;;;;4934983;29;20193;-94
2021/10/05 10:11:19;;;;;;;6.75;1.25;;;16.90;72.20;;;;;;4934710;29;20212;-94
2021/10/05 10:13:47;;;;;;;6.33;1.60;;;17.00;72.40;;;;;;4934115;29;20256;-94
2021/10/05 10:16:15;;;;;;;1.40;1.30;;;16.80;72.00;;;;;;4934667;29;20437;-94
2021/10/05 10:18:53;;;;;;;5.50;1.70;;;16.90;72.50;;;;;;4940783;29;20177;-94
2021/10/05 10:21:39;;;;;;;4.63;1.38;;;16.70;72.10;;;;;;4936064;29;20181;-95
2021/10/05 10:24:14;;;;;;;3.80;1.33;;;16.70;72.50;;;;;;4934750;29;20272;-94
2021/10/05 10:26:48;;;;;;;13.10;3.80;;;16.80;73.10;;;;;;4934680;29;20177;-94
2021/10/05 10:29:35;;;;;;;10.48;2.08;;;16.90;73.40;;;;;;4935058;29;20243;-94
2021/10/05 10:32:17;;;;;;;4.10;1.65;;;16.50;74.70;;;;;;4940797;29;20236;-95
2021/10/05 10:34:44;;;;;;;3.00;1.60;;;16.30;76.30;;;;;;4944103;28;20212;-94
2021/10/05 10:37:10;;;;;;;4.82;1.70;;;16.00;77.40;;;;;;4961426;29;20188;-95
2021/10/05 10:39:39;;;;;;;4.07;2.13;;;16.00;78.50;;;;;;4961185;29;20220;-95
2021/10/05 10:42:06;;;;;;;3.63;1.42;;;16.00;79.00;;;;;;4944949;29;20162;-95
2021/10/05 10:44:38;;;;;;;3.58;1.60;;;15.90;79.70;;;;;;4943276;29;20237;-96
2021/10/05 10:47:21;;;;;;;5.13;1.92;;;15.70;80.30;;;;;;4944647;28;20241;-95
2021/10/05 10:49:58;;;;;;;4.05;1.50;;;15.60;81.00;;;;;;4944578;29;20177;-95
2021/10/05 10:52:33;;;;;;;1.63;1.20;;;15.50;80.60;;;;;;4944851;28;20189;-95
2021/10/05 10:55:00;;;;;;;3.85;1.60;;;15.60;80.90;;;;;;4944616;29;20177;-95
2021/10/05 10:57:37;;;;;;;2.70;1.55;;;15.60;81.10;;;;;;4944815;29;20188;-96
2021/10/05 11:00:23;;;;;;;2.10;1.75;;;15.60;81.70;;;;;;4944572;29;20189;-95
2021/10/05 11:02:55;;;;;;;4.20;1.55;;;15.60;81.40;;;;;;4944600;29;20189;-95
2021/10/05 11:05:23;;;;;;;3.42;1.58;;;15.40;81.80;;;;;;4944260;29;20181;-96
2021/10/05 11:07:50;;;;;;;3.30;1.73;;;15.40;82.30;;;;;;4943961;29;20213;-95
2021/10/05 11:10:22;;;;;;;2.38;1.45;;;15.40;82.60;;;;;;4943226;29;20292;-95
2021/10/05 11:12:54;;;;;;;1.60;1.45;;;15.30;82.80;;;;;;4944439;29;20194;-95
2021/10/05 11:15:38;;;;;;;3.17;1.40;;;15.10;83.40;;;;;;4942463;29;20188;-96
2021/10/05 11:18:11;;;;;;;2.58;1.85;;;15.10;84.00;;;;;;4960487;28;20189;-95
2021/10/05 11:20:42;;;;;;;9.43;2.25;;;14.90;84.70;;;;;;4943537;29;20241;-95
2021/10/05 11:23:08;;;;;;;10.18;2.75;;;14.70;85.90;;;;;;4960464;28;20260;-95
2021/10/05 11:25:34;;;;;;;4.63;1.97;;;14.80;86.30;;;;;;4943549;29;20186;-96
2021/10/05 11:28:11;;;;;;;4.05;2.60;;;14.70;86.80;;;;;;4960753;29;20181;-95
2021/10/05 11:30:58;;;;;;;2.85;1.75;;;14.70;87.60;;;;;;4942826;29;20204;-95
2021/10/05 11:33:38;;;;;;;13.50;2.38;;;14.70;88.10;;;;;;4943219;29;20208;-96
2021/10/05 11:36:18;;;;;;;3.63;2.78;;;14.90;88.50;;;;;;4943707;28;20245;-95
2021/10/05 11:38:47;;;;;;;5.63;1.90;;;14.80;88.30;;;;;;4944604;28;20185;-95
2021/10/05 11:41:13;;;;;;;2.83;2.03;;;14.90;88.50;;;;;;4943904;29;20251;-96
2021/10/05 11:43:42;;;;;;;3.75;3.17;;;14.90;88.60;;;;;;4943636;28;20204;-95
2021/10/05 11:46:10;;;;;;;5.63;2.53;;;14.70;88.70;;;;;;4944490;28;20201;-96
2021/10/05 11:48:40;;;;;;;2.60;2.25;;;14.60;89.20;;;;;;4960971;28;20232;-95
2021/10/05 11:51:06;;;;;;;3.65;2.45;;;14.50;89.80;;;;;;4962570;28;20295;-96
2021/10/05 11:53:36;;;;;;;5.65;3.40;;;14.50;90.30;;;;;;4941942;29;20233;-95
2021/10/05 11:56:03;;;;;;;5.50;2.95;;;14.50;90.70;;;;;;4940234;29;20181;-95
2021/10/05 11:58:42;;;;;;;6.10;2.80;;;14.40;90.90;;;;;;4937545;29;20184;-94
2021/10/05 12:01:16;;;;;;;6.72;3.30;;;14.60;91.20;;;;;;4935837;29;20181;-94
2021/10/05 12:03:43;;;;;;;3.70;3.40;;;14.60;91.00;;;;;;4936044;29;20567;-94
2021/10/05 12:06:09;;;;;;;5.53;2.88;;;14.70;91.10;;;;;;4939705;29;20192;-94
2021/10/05 12:08:44;;;;;;;4.50;2.77;;;14.90;91.00;;;;;;4940015;29;20201;-94
2021/10/05 12:11:10;;;;;;;6.50;3.28;;;14.80;90.10;;;;;;4939992;29;20216;-95
2021/10/05 12:13:36;;;;;;;9.63;2.97;;;14.60;89.70;;;;;;4937786;29;20252;-95
2021/10/05 12:16:15;;;;;;;2.70;2.33;;;14.70;90.20;;;;;;4937805;29;20487;-95
2021/10/05 12:18:42;;;;;;;4.88;2.80;;;14.60;90.30;;;;;;4937032;29;20232;-95
2021/10/05 12:21:09;;;;;;;5.43;2.92;;;14.70;90.50;;;;;;4936311;29;20253;-95
2021/10/05 12:23:36;;;;;;;2.60;2.40;;;14.70;90.40;;;;;;4934606;29;20205;-95
2021/10/05 12:26:10;;;;;;;8.20;2.53;;;14.70;90.50;;;;;;4936562;29;20212;-95
2021/10/05 12:28:37;;;;;;;7.75;2.78;;;14.60;90.50;;;;;;4934411;29;20177;-95
2021/10/05 12:31:14;;;;;;;3.50;2.63;;;14.60;90.70;;;;;;4935459;29;20220;-95
2021/10/05 12:33:40;;;;;;;3.70;2.15;;;14.50;90.90;;;;;;4935960;29;20272;-95
2021/10/05 12:36:06;;;;;;;4.97;1.92;;;14.50;91.10;;;;;;4946072;29;20173;-94
2021/10/05 12:38:36;;;;;;;3.90;2.43;;;14.50;91.20;;;;;;4942907;29;20222;-94
2021/10/05 12:41:02;;;;;;;4.20;3.67;;;14.50;91.40;;;;;;4942951;29;20184;-94
2021/10/05 12:43:47;;;;;;;2.53;2.10;;;14.70;91.60;;;;;;4925306;29;20201;-94
2021/10/05 12:46:17;;;;;;;4.03;2.35;;;14.80;91.30;;;;;;4942864;29;20193;-94
2021/10/05 12:48:49;;;;;;;6.55;1.90;;;14.80;91.20;;;;;;4924665;29;20228;-94
2021/10/05 12:51:23;;;;;;;6.00;1.98;;;15.00;91.40;;;;;;4941946;29;20643;-94
2021/10/05 12:53:51;;;;;;;5.57;1.85;;;15.20;91.00;;;;;;4925472;29;20196;-94
2021/10/05 12:56:25;;;;;;;1.27;1.17;;;15.30;90.50;;;;;;4923557;29;20181;-94
2021/10/05 12:58:51;;;;;;;3.08;1.40;;;15.50;90.20;;;;;;4922631;29;20174;-94
2021/10/05 13:01:18;;;;;;;2.72;1.48;;;15.60;89.50;;;;;;4938876;29;20716;-94
2021/10/05 13:03:44;;;;;;;2.97;1.58;;;15.70;89.00;;;;;;4938392;29;20212;-94
2021/10/05 13:06:14;;;;;;;2.00;1.48;;;15.80;88.50;;;;;;4925939;29;20649;-94
2021/10/05 13:08:40;;;;;;;2.20;1.30;;;15.90;88.10;;;;;;4923928;29;20185;-94
2021/10/05 13:11:06;;;;;;;2.60;1.38;;;16.20;87.30;;;;;;4922775;29;20260;-94
2021/10/05 13:13:32;;;;;;;1.53;1.43;;;16.00;85.50;;;;;;4922428;29;20213;-94
2021/10/05 13:16:05;;;;;;;3.00;1.50;;;16.00;85.00;;;;;;4927104;28;20448;-93
2021/10/05 13:18:31;;;;;;;6.30;1.67;;;16.00;84.70;;;;;;4943146;28;20421;-94
2021/10/05 13:20:57;;;;;;;2.47;1.20;;;16.20;85.00;;;;;;4942981;28;20205;-95
2021/10/05 13:23:24;;;;;;;2.00;1.40;;;16.30;85.00;;;;;;4933099;29;20988;-94
2021/10/05 13:25:52;;;;;;;1.60;1.20;;;16.50;84.40;;;;;;4937507;28;20173;-95
2021/10/05 13:28:18;;;;;;;1.98;1.20;;;16.70;84.00;;;;;;4942326;28;20188;-96
2021/10/05 13:30:47;;;;;;;3.35;1.30;;;16.80;83.70;;;;;;4958830;28;20212;-96
2021/10/05 13:33:13;;;;;;;1.92;1.10;;;17.00;83.20;;;;;;4940608;28;20212;-96
2021/10/05 13:35:42;;;;;;;1.60;1.10;;;17.00;82.50;;;;;;4927359;28;20165;-94
2021/10/05 13:38:10;;;;;;;1.60;1.10;;;17.20;81.70;;;;;;4944460;28;20416;-94
2021/10/05 13:40:42;;;;;;;1.83;1.38;;;17.30;79.90;;;;;;4946962;28;20180;-95
2021/10/05 13:43:08;;;;;;;2.22;1.67;;;17.50;78.40;;;;;;4945842;29;20208;-94
2021/10/05 13:45:34;;;;;;;3.50;1.55;;;17.20;77.80;;;;;;4939735;29;20193;-95
2021/10/05 13:48:00;;;;;;;1.13;1.03;;;16.90;78.20;;;;;;4941678;29;20181;-94
2021/10/05 13:50:26;;;;;;;5.70;2.10;;;16.90;78.80;;;;;;4929998;29;20821;-94
2021/10/05 13:52:52;;;;;;;6.18;1.90;;;16.90;79.20;;;;;;4923461;29;20476;-93
2021/10/05 13:55:38;;;;;;;1.93;1.60;;;16.90;79.20;;;;;;4924776;29;20178;-93
2021/10/05 13:58:04;;;;;;;2.78;1.60;;;17.00;78.40;;;;;;4924050;29;20409;-94
2021/10/05 14:00:30;;;;;;;1.60;1.30;;;17.10;78.80;;;;;;4939975;29;20240;-95
2021/10/05 14:02:55;;;;;;;5.60;1.30;;;17.30;78.70;;;;;;4942042;29;20500;-96
2021/10/05 14:05:21;;;;;;;2.10;1.23;;;17.30;78.50;;;;;;4943136;29;20192;-95
2021/10/05 14:07:47;;;;;;;4.80;1.30;;;17.20;77.80;;;;;;4940000;29;20181;-96
2021/10/05 14:10:13;;;;;;;1.63;1.30;;;17.20;77.20;;;;;;4937109;29;20463;-93
2021/10/05 14:12:38;;;;;;;4.50;1.47;;;17.40;76.70;;;;;;4923816;29;20201;-94
2021/10/05 14:15:05;;;;;;;2.47;1.30;;;17.00;76.10;;;;;;4923300;29;20421;-93
2021/10/05 14:17:33;;;;;;;2.35;1.30;;;17.10;76.20;;;;;;4923412;29;20428;-94
2021/10/05 14:20:00;;;;;;;1.90;1.17;;;17.20;76.40;;;;;;4923762;29;20236;-93
2021/10/05 14:22:26;;;;;;;1.67;1.55;;;17.10;75.20;;;;;;4922527;29;20184;-93
2021/10/05 14:24:53;;;;;;;2.67;1.47;;;17.10;75.70;;;;;;4921980;29;20280;-92
2021/10/05 14:27:19;;;;;;;5.85;1.73;;;17.00;75.20;;;;;;4939700;29;20625;-93
2021/10/05 14:29:45;;;;;;;3.78;1.65;;;17.00;75.80;;;;;;4922407;29;20207;-93
2021/10/05 14:32:11;;;;;;;4.80;1.67;;;17.00;75.90;;;;;;4924136;29;20276;-94
2021/10/05 14:34:38;;;;;;;5.10;1.80;;;16.90;76.40;;;;;;4923671;29;20255;-93
2021/10/05 14:37:04;;;;;;;2.85;1.45;;;17.00;76.80;;;;;;4922174;29;20651;-93
2021/10/05 14:39:30;;;;;;;4.20;1.45;;;17.10;77.00;;;;;;4922650;29;20198;-93
2021/10/05 14:41:56;;;;;;;4.70;1.90;;;17.00;75.90;;;;;;4923097;29;20177;-92
2021/10/05 14:44:22;;;;;;;2.27;1.40;;;17.10;75.20;;;;;;4925043;29;20216;-94
2021/10/05 14:46:50;;;;;;;4.53;1.40;;;17.20;74.80;;;;;;4941148;29;20182;-95
2021/10/05 14:49:17;;;;;;;8.43;1.85;;;17.20;74.80;;;;;;4942700;28;20200;-95
2021/10/05 14:51:57;;;;;;;4.60;1.77;;;17.30;73.90;;;;;;4942683;28;20302;-94
2021/10/05 14:54:23;;;;;;;6.60;1.75;;;17.20;73.90;;;;;;4945051;29;20200;-95
2021/10/05 14:56:52;;;;;;;3.50;1.30;;;17.20;75.00;;;;;;4944399;29;20247;-95
2021/10/05 14:59:17;;;;;;;2.95;1.30;;;17.40;74.90;;;;;;4942724;29;20220;-96
2021/10/05 15:01:46;;;;;;;3.27;1.63;;;17.20;74.70;;;;;;4926445;29;20189;-96
2021/10/05 15:07:04;;;;;;;4.63;1.40;;;17.50;75.00;;;;;;4957888;28;20583;-94
2021/10/05 15:09:30;;;;;;;5.37;1.57;;;17.70;71.80;;;;;;4934012;29;20189;-95
2021/10/05 15:12:05;;;;;;;5.03;1.40;;;17.70;71.60;;;;;;4936725;29;20870;-95
2021/10/05 15:14:31;;;;;;;3.00;1.20;;;17.70;71.50;;;;;;4943803;28;20219;-95
2021/10/05 15:16:57;;;;;;;5.47;1.40;;;17.70;69.60;;;;;;4939565;29;20189;-95
2021/10/05 15:19:23;;;;;;;4.50;1.80;;;17.70;70.20;;;;;;4959108;29;20821;-95